createdAt,value
2019-01-09T00:00:50.329Z,92.40
2019-01-09T00:03:18.461Z,92.60
2019-01-09T00:05:46.481Z,92.90
2019-01-09T00:08:17.295Z,93.10
2019-01-09T00:10:45.671Z,92.90
2019-01-09T00:13:14.048Z,93.40
2019-01-09T00:15:42.437Z,93.40
2019-01-09T00:18:10.268Z,93.40
2019-01-09T00:20:38.639Z,93.70
2019-01-09T00:23:06.814Z,93.50
2019-01-09T00:25:34.740Z,95.00
2019-01-09T00:28:03.130Z,96.00
2019-01-09T00:30:31.034Z,96.40
2019-01-09T00:32:58.875Z,97.00
2019-01-09T00:35:27.088Z,97.50
2019-01-09T00:37:54.947Z,97.40
2019-01-09T00:40:23.107Z,97.40
2019-01-09T00:42:52.355Z,97.50
2019-01-09T00:45:20.370Z,97.80
2019-01-09T00:47:48.504Z,97.50
2019-01-09T00:50:16.455Z,97.30
2019-01-09T00:52:44.451Z,97.10
2019-01-09T00:55:12.646Z,98.50
2019-01-09T00:57:40.771Z,99.00
2019-01-09T01:00:14.366Z,99.10
2019-01-09T01:04:11.616Z,98.90
2019-01-09T01:07:31.831Z,99.60
2019-01-09T01:11:05.260Z,99.90
2019-01-09T01:14:51.771Z,99.90
2019-01-09T01:18:22.785Z,99.90
2019-01-09T01:21:19.013Z,99.90
2019-01-09T01:24:47.076Z,99.90
2019-01-09T01:27:41.088Z,99.90
2019-01-09T01:31:17.282Z,99.90
2019-01-09T01:38:40.003Z,99.90
2019-01-09T01:41:41.829Z,99.90
2019-01-09T01:44:54.773Z,99.90
2019-01-09T01:47:54.556Z,99.90
2019-01-09T01:51:28.260Z,99.90
2019-01-09T01:54:50.778Z,99.90
2019-01-09T01:58:00.471Z,99.90
2019-01-09T02:01:15.035Z,99.90
2019-01-09T02:04:28.198Z,99.90
2019-01-09T02:07:36.749Z,99.90
2019-01-09T02:11:18.101Z,99.90
2019-01-09T02:14:35.225Z,99.90
2019-01-09T02:18:09.590Z,99.90
2019-01-09T02:21:36.511Z,99.90
2019-01-09T02:29:25.514Z,99.90
2019-01-09T02:32:31.830Z,99.90
2019-01-09T02:35:00.204Z,99.90
2019-01-09T02:37:28.591Z,99.90
2019-01-09T02:39:56.661Z,99.90
2019-01-09T02:42:24.539Z,99.90
2019-01-09T02:44:52.357Z,99.90
2019-01-09T02:47:20.784Z,99.90
2019-01-09T02:49:48.872Z,99.90
2019-01-09T02:52:16.866Z,99.90
2019-01-09T02:54:45.877Z,99.90
2019-01-09T02:57:13.905Z,99.10
2019-01-09T02:59:41.959Z,98.80
2019-01-09T03:02:09.959Z,98.40
2019-01-09T03:04:38.387Z,98.10
2019-01-09T03:07:06.686Z,98.10
2019-01-09T03:09:35.546Z,97.90
2019-01-09T03:12:03.441Z,97.80
2019-01-09T03:14:35.284Z,97.80
2019-01-09T03:17:04.427Z,97.90
2019-01-09T03:19:32.746Z,97.20
2019-01-09T03:22:04.050Z,98.10
2019-01-09T03:24:32.843Z,98.10
2019-01-09T03:27:03.177Z,98.20
2019-01-09T03:29:32.683Z,98.00
2019-01-09T03:32:02.489Z,98.50
2019-01-09T03:34:30.818Z,98.30
2019-01-09T03:36:58.895Z,98.80
2019-01-09T03:39:27.016Z,98.90
2019-01-09T03:41:55.420Z,98.10
2019-01-09T03:44:23.962Z,98.90
2019-01-09T03:46:52.466Z,99.00
2019-01-09T03:49:23.752Z,99.40
2019-01-09T03:51:52.135Z,99.60
2019-01-09T03:54:22.652Z,99.70
2019-01-09T03:56:51.546Z,99.70
2019-01-09T03:59:19.825Z,99.70
2019-01-09T04:01:48.340Z,99.80
2019-01-09T04:04:18.979Z,99.90
2019-01-09T04:06:47.941Z,99.80
2019-01-09T04:09:15.926Z,99.90
2019-01-09T04:11:43.906Z,99.90
2019-01-09T04:14:13.532Z,99.90
2019-01-09T04:16:43.559Z,99.90
2019-01-09T04:19:11.359Z,99.90
2019-01-09T04:21:39.350Z,99.90
2019-01-09T04:24:07.461Z,99.90
2019-01-09T04:26:36.085Z,99.90
2019-01-09T04:29:04.827Z,99.90
2019-01-09T04:31:33.033Z,99.90
2019-01-09T04:34:00.976Z,99.90
2019-01-09T04:36:28.853Z,99.90
2019-01-09T04:38:56.891Z,99.70
2019-01-09T04:41:24.726Z,99.70
2019-01-09T04:43:53.133Z,99.50
2019-01-09T04:46:21.130Z,99.80
2019-01-09T04:48:50.543Z,99.90
2019-01-09T04:51:18.376Z,99.80
2019-01-09T04:53:46.419Z,99.50
2019-01-09T04:56:14.387Z,99.40
2019-01-09T04:58:43.426Z,99.50
2019-01-09T05:01:11.751Z,99.40
2019-01-09T05:03:40.846Z,99.50
2019-01-09T05:06:09.002Z,99.50
2019-01-09T05:08:37.029Z,99.70
2019-01-09T05:11:05.075Z,99.80
2019-01-09T05:13:34.269Z,99.60
2019-01-09T05:16:02.213Z,99.60
2019-01-09T05:18:32.313Z,99.50
2019-01-09T05:21:00.487Z,99.80
2019-01-09T05:23:30.205Z,99.80
2019-01-09T05:25:58.093Z,99.80
2019-01-09T05:28:26.020Z,99.00
2019-01-09T05:30:54.063Z,99.60
2019-01-09T05:33:22.238Z,99.60
2019-01-09T05:35:50.511Z,99.60
2019-01-09T05:38:18.898Z,99.10
2019-01-09T05:40:47.105Z,99.50
2019-01-09T05:43:15.599Z,99.40
2019-01-09T05:45:44.662Z,99.50
2019-01-09T05:48:13.386Z,99.10
2019-01-09T05:50:41.254Z,98.70
2019-01-09T05:53:09.349Z,98.30
2019-01-09T05:55:38.405Z,98.50
2019-01-09T05:58:07.551Z,97.90
2019-01-09T06:00:39.373Z,97.90
2019-01-09T06:03:07.773Z,98.10
2019-01-09T06:05:36.698Z,97.60
2019-01-09T06:08:04.652Z,98.20
2019-01-09T06:10:33.184Z,98.00
2019-01-09T06:13:01.078Z,97.50
2019-01-09T06:15:29.028Z,97.40
2019-01-09T06:17:56.965Z,97.40
2019-01-09T06:20:25.417Z,97.70
2019-01-09T06:22:53.595Z,97.60
2019-01-09T06:25:21.600Z,97.60
2019-01-09T06:27:49.438Z,97.80
2019-01-09T06:30:17.326Z,98.30
2019-01-09T06:32:45.292Z,98.70
2019-01-09T06:35:13.175Z,98.70
2019-01-09T06:37:41.513Z,98.80
2019-01-09T06:40:09.526Z,99.10
2019-01-09T06:42:37.890Z,98.90
2019-01-09T06:45:06.212Z,99.20
2019-01-09T06:47:34.087Z,98.50
2019-01-09T06:50:02.203Z,99.00
2019-01-09T06:52:33.955Z,98.90
2019-01-09T06:55:02.285Z,99.10
2019-01-09T06:57:30.547Z,99.10
2019-01-09T07:00:01.381Z,98.90
2019-01-09T07:02:29.364Z,99.00
2019-01-09T07:04:57.320Z,98.80
2019-01-09T07:07:25.906Z,99.10
2019-01-09T07:09:53.823Z,98.90
2019-01-09T07:12:21.885Z,99.10
2019-01-09T07:14:50.213Z,99.20
2019-01-09T07:17:19.269Z,98.90
2019-01-09T07:19:47.465Z,98.80
2019-01-09T07:22:15.468Z,98.80
2019-01-09T07:24:43.440Z,99.00
2019-01-09T07:27:11.575Z,98.70
2019-01-09T07:29:41.550Z,98.60
2019-01-09T07:32:09.409Z,98.80
2019-01-09T07:34:39.128Z,98.80
2019-01-09T07:37:09.133Z,98.20
2019-01-09T07:39:37.434Z,99.30
2019-01-09T07:42:05.353Z,99.20
2019-01-09T07:44:33.352Z,98.40
2019-01-09T07:47:01.620Z,98.80
2019-01-09T07:49:30.211Z,99.40
2019-01-09T07:52:00.859Z,98.60
2019-01-09T07:54:31.291Z,99.70
2019-01-09T07:56:59.626Z,99.60
2019-01-09T07:59:27.485Z,99.70
2019-01-09T08:01:57.317Z,99.20
2019-01-09T08:04:25.393Z,99.90
2019-01-09T08:06:53.506Z,99.90
2019-01-09T08:09:21.628Z,99.60
2019-01-09T08:11:49.620Z,99.00
2019-01-09T08:14:17.575Z,98.40
2019-01-09T08:16:45.769Z,98.70
2019-01-09T08:19:14.123Z,98.10
2019-01-09T08:21:41.971Z,97.80
2019-01-09T08:24:10.187Z,98.10
2019-01-09T08:26:38.503Z,97.40
2019-01-09T08:29:07.302Z,97.70
2019-01-09T08:31:35.419Z,97.80
2019-01-09T08:34:04.260Z,97.20
2019-01-09T08:36:32.539Z,96.90
2019-01-09T08:39:04.550Z,96.70
2019-01-09T08:41:33.798Z,96.70
2019-01-09T08:44:02.283Z,96.60
2019-01-09T08:46:30.263Z,96.40
2019-01-09T08:48:58.554Z,96.80
2019-01-09T08:51:28.644Z,97.00
2019-01-09T08:53:57.010Z,97.00
2019-01-09T08:56:24.936Z,96.10
2019-01-09T08:58:53.107Z,96.70
2019-01-09T09:01:21.106Z,96.70
2019-01-09T09:03:49.419Z,96.80
2019-01-09T09:06:17.585Z,96.70
2019-01-09T09:08:46.068Z,96.00
2019-01-09T09:11:14.052Z,95.60
2019-01-09T09:13:42.205Z,95.60
2019-01-09T09:16:11.657Z,95.30
2019-01-09T09:18:39.723Z,95.20
2019-01-09T09:21:11.196Z,94.80
2019-01-09T09:23:39.363Z,94.50
2019-01-09T09:26:07.356Z,94.30
2019-01-09T09:28:35.228Z,94.80
2019-01-09T09:31:04.298Z,94.60
2019-01-09T09:33:32.588Z,94.60
2019-01-09T09:36:00.481Z,94.30
2019-01-09T09:38:28.319Z,93.80
2019-01-09T09:40:56.275Z,94.20
2019-01-09T09:43:24.136Z,93.50
2019-01-09T09:45:51.966Z,93.40
2019-01-09T09:48:19.939Z,93.20
2019-01-09T09:50:48.548Z,93.60
2019-01-09T09:53:17.304Z,93.50
2019-01-09T09:55:45.319Z,93.80
2019-01-09T09:58:13.203Z,93.50
2019-01-09T10:00:43.013Z,93.20
2019-01-09T10:03:10.918Z,93.40
2019-01-09T10:05:41.949Z,94.10
2019-01-09T10:08:09.800Z,93.20
2019-01-09T10:10:39.314Z,92.10
2019-01-09T10:13:08.685Z,93.70
2019-01-09T10:15:39.184Z,93.60
2019-01-09T10:18:07.280Z,92.90
2019-01-09T10:20:35.937Z,92.80
2019-01-09T10:23:03.892Z,92.20
2019-01-09T10:25:32.351Z,92.30
2019-01-09T10:28:00.183Z,93.00
2019-01-09T10:30:28.089Z,91.40
2019-01-09T10:32:56.102Z,92.10
2019-01-09T10:35:25.093Z,91.50
2019-01-09T10:37:53.488Z,91.70
2019-01-09T10:40:21.387Z,91.00
2019-01-09T10:42:49.399Z,91.70
2019-01-09T10:45:20.463Z,91.30
2019-01-09T10:47:48.478Z,91.60
2019-01-09T10:50:17.216Z,90.60
2019-01-09T10:52:45.392Z,91.30
2019-01-09T10:55:15.393Z,91.20
2019-01-09T10:57:43.458Z,91.80
2019-01-09T11:00:16.752Z,91.20
2019-01-09T11:02:47.256Z,91.10
2019-01-09T11:05:15.194Z,90.70
2019-01-09T11:07:43.188Z,90.80
2019-01-09T11:10:12.723Z,91.10
2019-01-09T11:12:40.841Z,91.90
2019-01-09T11:15:11.213Z,92.40
2019-01-09T11:17:39.446Z,91.40
2019-01-09T11:20:13.677Z,92.30
2019-01-09T11:22:41.569Z,91.40
2019-01-09T11:25:16.647Z,91.80
2019-01-09T11:27:45.781Z,91.60
2019-01-09T11:30:16.715Z,91.90
2019-01-09T11:32:45.051Z,91.80
2019-01-09T11:35:15.367Z,91.80
2019-01-09T11:37:44.550Z,90.80
2019-01-09T11:40:14.505Z,90.90
2019-01-09T11:42:42.991Z,90.50
2019-01-09T11:45:13.164Z,90.90
2019-01-09T11:47:42.301Z,90.70
2019-01-09T11:50:12.484Z,91.00
2019-01-09T11:52:40.330Z,91.30
2019-01-09T11:55:10.680Z,90.50
2019-01-09T11:57:38.634Z,91.00
2019-01-09T12:00:17.787Z,90.80
2019-01-09T12:02:48.655Z,89.60
2019-01-09T12:05:18.199Z,89.20
2019-01-09T12:07:46.203Z,90.50
2019-01-09T12:10:17.017Z,89.30
2019-01-09T12:12:45.914Z,89.10
2019-01-09T12:15:16.565Z,88.90
2019-01-09T12:17:45.992Z,87.20
2019-01-09T12:20:16.321Z,88.30
2019-01-09T12:22:45.008Z,85.90
2019-01-09T12:25:13.491Z,86.30
2019-01-09T12:27:41.470Z,86.80
2019-01-09T12:30:18.289Z,85.00
2019-01-09T12:32:46.665Z,85.20
2019-01-09T12:35:15.193Z,88.40
2019-01-09T12:37:44.867Z,87.30
2019-01-09T12:40:13.112Z,87.20
2019-01-09T12:42:40.980Z,87.80
2019-01-09T12:45:15.118Z,88.10
2019-01-09T12:47:45.873Z,84.90
2019-01-09T12:50:22.021Z,84.80
2019-01-09T12:52:49.884Z,87.60
2019-01-09T12:55:18.095Z,85.80
2019-01-09T12:57:47.024Z,87.40
2019-01-09T13:00:24.141Z,86.60
2019-01-09T13:02:52.944Z,82.80
2019-01-09T13:05:20.900Z,83.00
2019-01-09T13:07:49.905Z,82.90
2019-01-09T13:10:20.077Z,86.00
2019-01-09T13:12:48.485Z,79.80
2019-01-09T13:15:17.244Z,79.30
2019-01-09T13:17:45.900Z,77.90
2019-01-09T13:20:14.506Z,79.00
2019-01-09T13:22:42.525Z,79.10
2019-01-09T13:25:12.218Z,81.90
2019-01-09T13:27:45.179Z,79.30
2019-01-09T13:30:19.324Z,77.20
2019-01-09T13:32:47.729Z,78.80
2019-01-09T13:35:17.209Z,74.70
2019-01-09T13:37:46.514Z,77.60
2019-01-09T13:40:17.766Z,74.80
2019-01-09T13:42:45.774Z,77.20
2019-01-09T13:45:16.794Z,77.00
2019-01-09T13:47:44.948Z,76.90
2019-01-09T13:50:14.202Z,77.20
2019-01-09T13:52:42.401Z,75.20
2019-01-09T13:55:12.131Z,74.80
2019-01-09T13:57:40.174Z,73.20
2019-01-09T14:00:14.849Z,74.60
2019-01-09T14:02:42.852Z,73.00
2019-01-09T14:05:11.661Z,73.80
2019-01-09T14:07:39.698Z,71.00
2019-01-09T14:10:11.238Z,67.60
2019-01-09T14:12:39.293Z,68.00
2019-01-09T14:15:10.574Z,67.80
2019-01-09T14:17:38.528Z,68.30
2019-01-09T14:20:09.230Z,66.60
2019-01-09T14:22:38.622Z,67.70
2019-01-09T14:25:08.523Z,65.90
2019-01-09T14:27:36.596Z,67.70
2019-01-09T14:30:09.065Z,67.30
2019-01-09T14:32:37.030Z,66.20
2019-01-09T14:35:06.544Z,64.90
2019-01-09T14:37:34.580Z,68.20
2019-01-09T14:40:02.895Z,67.40
2019-01-09T14:42:31.890Z,68.80
2019-01-09T14:44:59.750Z,67.10
2019-01-09T14:47:27.653Z,67.00
2019-01-09T14:49:55.664Z,66.10
2019-01-09T14:52:23.618Z,69.00
2019-01-09T14:54:51.437Z,68.00
2019-01-09T14:57:19.310Z,67.40
2019-01-09T14:59:47.291Z,67.90
2019-01-09T15:02:15.166Z,67.60
2019-01-09T15:04:43.187Z,70.30
2019-01-09T15:07:11.041Z,69.70
2019-01-09T15:09:39.037Z,71.40
2019-01-09T15:12:07.074Z,70.10
2019-01-09T15:14:34.851Z,70.30
2019-01-09T15:17:02.679Z,68.90
2019-01-09T15:19:30.620Z,71.50
2019-01-09T15:21:59.458Z,72.30
2019-01-09T15:24:27.538Z,71.60
2019-01-09T15:26:55.724Z,72.90
2019-01-09T15:29:23.644Z,74.60
2019-01-09T15:31:51.481Z,73.40
2019-01-09T15:34:19.409Z,73.30
2019-01-09T15:36:47.368Z,73.50
2019-01-09T15:39:15.304Z,73.30
2019-01-09T15:41:43.298Z,73.10
2019-01-09T15:44:14.313Z,73.60
2019-01-09T15:46:42.122Z,73.60
2019-01-09T15:49:10.146Z,75.10
2019-01-09T15:51:37.941Z,74.60
2019-01-09T15:54:05.743Z,74.40
2019-01-09T15:56:34.030Z,74.40
2019-01-09T15:59:01.942Z,75.70
2019-01-09T16:01:29.731Z,75.10
2019-01-09T16:03:57.666Z,75.70
2019-01-09T16:06:25.485Z,75.80
2019-01-09T16:08:53.286Z,76.70
2019-01-09T16:11:21.238Z,76.40
2019-01-09T16:13:49.050Z,76.60
2019-01-09T16:16:17.029Z,76.70
2019-01-09T16:18:44.833Z,77.30
2019-01-09T16:21:12.625Z,78.10
2019-01-09T16:23:40.531Z,78.60
2019-01-09T16:26:08.548Z,77.60
2019-01-09T16:28:36.417Z,79.20
2019-01-09T16:31:40.477Z,79.20
2019-01-09T16:34:08.447Z,79.50
2019-01-09T16:36:36.706Z,79.10
2019-01-09T16:39:08.900Z,79.20
2019-01-09T16:41:36.713Z,79.60
2019-01-09T16:44:04.826Z,78.90
2019-01-09T16:46:32.625Z,80.20
2019-01-09T16:49:00.683Z,77.70
2019-01-09T16:51:28.546Z,79.10
2019-01-09T16:53:56.349Z,79.00
2019-01-09T16:56:24.318Z,78.90
2019-01-09T16:58:52.290Z,79.40
2019-01-09T17:01:20.114Z,79.20
2019-01-09T17:03:47.928Z,79.80
2019-01-09T17:06:15.890Z,80.60
2019-01-09T17:08:43.785Z,80.70
2019-01-09T17:11:11.602Z,80.60
2019-01-09T17:13:39.415Z,80.40
2019-01-09T17:16:07.353Z,80.80
2019-01-09T17:18:35.277Z,80.50
2019-01-09T17:21:03.268Z,80.50
2019-01-09T17:23:31.182Z,81.30
2019-01-09T17:31:23.227Z,81.20
2019-01-09T17:33:51.351Z,81.40
2019-01-09T17:36:19.260Z,81.40
2019-01-09T17:38:47.030Z,82.00
2019-01-09T17:41:14.812Z,81.70
2019-01-09T17:43:42.979Z,83.00
2019-01-09T17:46:11.083Z,82.40
2019-01-09T17:48:41.019Z,81.60
2019-01-09T17:51:08.921Z,82.40
2019-01-09T17:53:36.781Z,82.60
2019-01-09T17:56:04.712Z,82.30
2019-01-09T17:58:32.916Z,83.20
2019-01-09T18:01:00.856Z,84.00
2019-01-09T18:03:28.806Z,83.30
2019-01-09T18:05:56.775Z,84.20
2019-01-09T18:08:24.696Z,83.80
2019-01-09T18:10:54.373Z,84.10
2019-01-09T18:13:22.405Z,84.80
2019-01-09T18:15:50.338Z,85.70
2019-01-09T18:18:18.277Z,87.00
2019-01-09T18:20:46.311Z,87.90
2019-01-09T18:23:14.813Z,87.40
2019-01-09T18:25:42.683Z,88.00
2019-01-09T18:28:10.826Z,88.50
2019-01-09T18:31:23.388Z,89.00
2019-01-09T18:34:30.571Z,88.40
2019-01-09T18:37:57.301Z,88.40
2019-01-09T18:41:19.864Z,88.40
2019-01-09T18:44:09.757Z,88.60
2019-01-09T18:47:18.582Z,89.80
2019-01-09T18:51:08.848Z,90.00
2019-01-09T18:53:45.001Z,90.30
2019-01-09T18:56:13.905Z,90.80
2019-01-09T18:58:41.795Z,91.00
2019-01-09T19:01:10.364Z,91.40
2019-01-09T19:03:38.548Z,90.70
2019-01-09T19:06:09.070Z,91.10
2019-01-09T19:08:37.020Z,90.40
2019-01-09T19:11:07.772Z,91.30
2019-01-09T19:13:35.582Z,91.10
2019-01-09T19:16:05.305Z,90.40
2019-01-09T19:18:33.371Z,90.90
2019-01-09T19:21:01.431Z,90.70
2019-01-09T19:23:31.705Z,90.80
2019-01-09T19:26:02.230Z,90.80
2019-01-09T19:28:30.555Z,90.80
2019-01-09T19:30:58.526Z,91.20
2019-01-09T19:33:26.376Z,91.30
2019-01-09T19:35:54.211Z,91.50
2019-01-09T19:38:22.209Z,91.50
2019-01-09T19:40:50.616Z,91.60
2019-01-09T19:43:18.590Z,91.60
2019-01-09T19:45:48.039Z,91.10
2019-01-09T19:48:16.075Z,91.30
2019-01-09T19:50:43.962Z,91.70
2019-01-09T19:53:12.644Z,91.50
2019-01-09T19:55:40.823Z,91.60
2019-01-09T19:58:08.889Z,91.60
2019-01-09T20:00:36.733Z,92.00
2019-01-09T20:03:04.727Z,92.10
2019-01-09T20:05:32.677Z,92.20
2019-01-09T20:08:00.495Z,92.20
2019-01-09T20:10:28.436Z,92.40
2019-01-09T20:12:56.931Z,92.70
2019-01-09T20:15:24.931Z,92.40
2019-01-09T20:17:53.115Z,92.40
2019-01-09T20:20:27.994Z,91.90
2019-01-09T20:22:55.917Z,92.00
2019-01-09T20:25:24.592Z,91.90
2019-01-09T20:27:52.673Z,91.60
2019-01-09T20:30:28.932Z,92.50
2019-01-09T20:32:59.978Z,92.60
2019-01-09T20:35:28.079Z,92.50
2019-01-09T20:37:57.520Z,92.20
2019-01-09T20:40:26.202Z,91.90
2019-01-09T20:43:03.576Z,92.60
2019-01-09T20:45:29.258Z,92.70
2019-01-09T20:47:57.370Z,92.60
2019-01-09T20:50:28.682Z,92.10
2019-01-09T20:52:56.663Z,92.30
2019-01-09T20:55:24.612Z,92.50
2019-01-09T20:57:52.600Z,92.60
2019-01-09T21:00:29.216Z,92.70
2019-01-09T21:03:07.375Z,92.40
2019-01-09T21:05:39.679Z,92.70
2019-01-09T21:08:07.914Z,92.20
2019-01-09T21:10:38.421Z,92.50
2019-01-09T21:13:06.801Z,92.50
2019-01-09T21:15:36.031Z,92.60
2019-01-09T21:18:04.172Z,92.30
2019-01-09T21:20:32.299Z,92.40
2019-01-09T21:23:00.383Z,92.20
2019-01-09T21:25:31.200Z,92.50
2019-01-09T21:27:59.063Z,93.20
2019-01-09T21:30:27.074Z,93.00
2019-01-09T21:32:58.063Z,93.40
2019-01-09T21:35:27.993Z,93.70
2019-01-09T21:37:55.902Z,93.80
2019-01-09T21:40:27.012Z,92.70
2019-01-09T21:42:54.941Z,93.40
2019-01-09T21:45:23.353Z,93.60
2019-01-09T21:47:54.173Z,93.30
2019-01-09T21:50:23.871Z,93.80
2019-01-09T21:52:51.875Z,93.70
2019-01-09T21:55:19.986Z,93.50
2019-01-09T21:57:48.076Z,93.60
2019-01-09T22:00:22.559Z,93.40
2019-01-09T22:02:50.570Z,93.80
2019-01-09T22:05:19.203Z,93.20
2019-01-09T22:07:47.138Z,93.90
2019-01-09T22:10:24.630Z,93.90
2019-01-09T22:12:52.592Z,93.10
2019-01-09T22:15:20.688Z,94.00
2019-01-09T22:17:48.647Z,93.80
2019-01-09T22:20:16.593Z,93.30
2019-01-09T22:22:45.406Z,93.50
2019-01-09T22:25:14.185Z,93.70
2019-01-09T22:27:43.120Z,93.10
2019-01-09T22:30:19.042Z,93.70
2019-01-09T22:32:47.036Z,94.00
2019-01-09T22:35:15.337Z,93.80
2019-01-09T22:37:43.343Z,93.50
2019-01-09T22:40:13.701Z,93.60
2019-01-09T22:42:41.575Z,94.10
2019-01-09T22:45:10.754Z,93.90
2019-01-09T22:47:38.976Z,94.50
2019-01-09T22:50:10.481Z,94.70
2019-01-09T22:52:38.366Z,94.70
2019-01-09T22:55:07.381Z,95.30
2019-01-09T22:57:35.368Z,94.90
2019-01-09T23:00:46.948Z,95.00
2019-01-09T23:03:17.312Z,95.60
2019-01-09T23:05:48.200Z,95.50
2019-01-09T23:08:16.460Z,95.70
2019-01-09T23:10:44.457Z,95.70
2019-01-09T23:13:14.657Z,95.50
2019-01-09T23:15:42.707Z,95.50
2019-01-09T23:18:10.656Z,95.40
2019-01-09T23:20:38.834Z,95.20
2019-01-09T23:23:08.398Z,95.70
2019-01-09T23:25:36.458Z,95.50
2019-01-09T23:28:07.544Z,95.70
2019-01-09T23:30:35.434Z,95.70
2019-01-09T23:33:04.072Z,95.90
2019-01-09T23:35:32.126Z,95.80
2019-01-09T23:37:59.965Z,95.40
2019-01-09T23:40:31.047Z,95.30
2019-01-09T23:43:00.828Z,95.80
2019-01-09T23:45:28.784Z,95.90
2019-01-09T23:47:56.830Z,95.60
2019-01-09T23:50:24.691Z,95.60
2019-01-09T23:52:52.581Z,95.70
2019-01-09T23:55:21.660Z,95.90
2019-01-09T23:57:49.621Z,96.30
